createdAt,value
2019-03-23T00:00:08.850Z,6.70
2019-03-23T00:02:37.528Z,6.73
2019-03-23T00:05:08.299Z,6.73
2019-03-23T00:07:37.143Z,6.82
2019-03-23T00:10:08.220Z,6.89
2019-03-23T00:12:36.915Z,7.00
2019-03-23T00:15:10.994Z,6.92
2019-03-23T00:17:39.904Z,6.95
2019-03-23T00:20:09.490Z,7.02
2019-03-23T00:22:38.159Z,6.86
2019-03-23T00:25:07.233Z,6.71
2019-03-23T00:27:36.001Z,6.55
2019-03-23T00:30:10.536Z,6.47
2019-03-23T00:32:39.455Z,6.42
2019-03-23T00:35:08.822Z,6.43
2019-03-23T00:37:37.615Z,6.39
2019-03-23T00:40:08.893Z,6.40
2019-03-23T00:42:37.569Z,6.43
2019-03-23T00:45:07.833Z,6.51
2019-03-23T00:47:36.504Z,6.44
2019-03-23T00:50:07.073Z,6.28
2019-03-23T00:52:35.742Z,6.22
2019-03-23T00:55:06.661Z,6.28
2019-03-23T00:57:35.335Z,6.29
2019-03-23T01:00:12.066Z,6.26
2019-03-23T01:02:42.015Z,5.70
2019-03-23T01:05:11.851Z,6.05
2019-03-23T01:07:40.560Z,6.02
2019-03-23T01:10:11.345Z,6.00
2019-03-23T01:12:40.021Z,5.98
2019-03-23T01:15:10.891Z,5.98
2019-03-23T01:17:39.556Z,5.94
2019-03-23T01:20:10.756Z,6.11
2019-03-23T01:22:39.406Z,6.18
2019-03-23T01:25:09.967Z,6.10
2019-03-23T01:27:38.644Z,6.06
2019-03-23T01:30:14.632Z,6.06
2019-03-23T01:32:43.306Z,5.94
2019-03-23T01:35:12.683Z,5.87
2019-03-23T01:37:41.363Z,5.84
2019-03-23T01:40:10.231Z,5.82
2019-03-23T01:42:38.907Z,5.89
2019-03-23T01:45:10.136Z,5.91
2019-03-23T01:47:38.818Z,5.90
2019-03-23T01:50:09.530Z,5.82
2019-03-23T01:52:38.532Z,5.67
2019-03-23T01:55:08.396Z,5.70
2019-03-23T01:57:37.071Z,5.65
2019-03-23T02:00:10.852Z,5.49
2019-03-23T02:02:39.516Z,5.61
2019-03-23T02:05:09.789Z,5.67
2019-03-23T02:07:38.570Z,5.67
2019-03-23T02:10:09.032Z,5.68
2019-03-23T02:12:37.704Z,5.81
2019-03-23T02:15:08.874Z,5.84
2019-03-23T02:17:37.593Z,5.91
2019-03-23T02:20:11.897Z,5.90
2019-03-23T02:22:40.974Z,5.94
2019-03-23T02:25:10.949Z,5.84
2019-03-23T02:27:39.627Z,5.84
2019-03-23T02:30:11.102Z,5.82
2019-03-23T02:32:39.777Z,5.81
2019-03-23T02:35:09.558Z,5.85
2019-03-23T02:37:38.240Z,6.00
2019-03-23T02:40:09.716Z,5.95
2019-03-23T02:42:38.374Z,5.85
2019-03-23T02:45:11.559Z,5.90
2019-03-23T02:47:40.349Z,5.96
2019-03-23T02:50:10.523Z,5.86
2019-03-23T02:52:39.209Z,5.87
2019-03-23T02:55:09.560Z,5.81
2019-03-23T02:57:38.456Z,5.88
2019-03-23T03:00:15.360Z,5.85
2019-03-23T03:02:44.047Z,5.75
2019-03-23T03:05:13.320Z,5.77
2019-03-23T03:07:43.721Z,5.73
2019-03-23T03:10:15.147Z,5.65
2019-03-23T03:12:43.806Z,5.64
2019-03-23T03:15:13.280Z,5.68
2019-03-23T03:17:41.956Z,5.70
2019-03-23T03:20:11.633Z,5.67
2019-03-23T03:22:40.299Z,5.58
2019-03-23T03:25:09.621Z,5.58
2019-03-23T03:27:38.323Z,5.49
2019-03-23T03:30:09.868Z,5.29
2019-03-23T03:32:38.538Z,5.19
2019-03-23T03:35:10.852Z,5.23
2019-03-23T03:37:39.529Z,5.30
2019-03-23T03:40:09.108Z,5.36
2019-03-23T03:42:37.779Z,5.40
2019-03-23T03:45:08.422Z,5.29
2019-03-23T03:47:40.738Z,5.28
2019-03-23T03:50:08.788Z,5.30
2019-03-23T03:52:37.461Z,5.19
2019-03-23T03:55:06.971Z,5.14
2019-03-23T03:57:35.651Z,5.13
2019-03-23T04:00:06.639Z,5.02
2019-03-23T04:02:35.285Z,5.05
2019-03-23T04:05:04.275Z,5.10
2019-03-23T04:07:32.941Z,5.03
2019-03-23T04:10:01.753Z,5.14
2019-03-23T04:12:30.404Z,5.15
2019-03-23T04:14:59.068Z,5.18
2019-03-23T04:17:27.739Z,5.25
2019-03-23T04:19:56.413Z,5.19
2019-03-23T04:22:25.088Z,5.15
2019-03-23T04:24:53.757Z,5.02
2019-03-23T04:27:22.419Z,4.85
2019-03-23T04:29:52.062Z,4.82
2019-03-23T04:32:20.960Z,4.89
2019-03-23T04:34:49.632Z,4.96
2019-03-23T04:37:18.288Z,4.87
2019-03-23T04:39:46.956Z,4.88
2019-03-23T04:42:16.015Z,4.80
2019-03-23T04:44:44.696Z,4.76
2019-03-23T04:47:13.365Z,4.75
2019-03-23T04:49:42.028Z,4.78
2019-03-23T04:52:10.741Z,4.85
2019-03-23T04:54:39.381Z,4.88
2019-03-23T04:57:08.077Z,5.05
2019-03-23T04:59:36.748Z,5.19
2019-03-23T05:02:05.443Z,5.36
2019-03-23T05:04:34.126Z,5.47
2019-03-23T05:07:02.790Z,5.54
2019-03-23T05:09:31.457Z,5.72
2019-03-23T05:12:00.131Z,5.81
2019-03-23T05:14:28.789Z,5.82
2019-03-23T05:16:57.461Z,5.93
2019-03-23T05:19:26.140Z,6.23
2019-03-23T05:21:54.808Z,6.54
2019-03-23T05:24:23.470Z,6.91
2019-03-23T05:26:52.147Z,7.18
2019-03-23T05:29:20.815Z,7.64
2019-03-23T05:31:49.546Z,7.96
2019-03-23T05:34:18.205Z,8.15
2019-03-23T05:36:47.103Z,8.09
2019-03-23T05:39:15.817Z,8.47
2019-03-23T05:41:44.474Z,9.08
2019-03-23T05:44:13.238Z,9.76
2019-03-23T05:46:41.904Z,10.14
2019-03-23T05:49:10.595Z,10.37
2019-03-23T05:51:39.269Z,11.02
2019-03-23T05:54:07.946Z,11.25
2019-03-23T05:56:36.713Z,11.34
2019-03-23T05:59:05.485Z,11.64
2019-03-23T06:01:34.156Z,11.60
2019-03-23T06:04:02.883Z,11.86
2019-03-23T06:06:31.565Z,12.28
2019-03-23T06:09:00.234Z,12.38
2019-03-23T06:11:28.911Z,12.78
2019-03-23T06:13:58.182Z,13.51
2019-03-23T06:16:26.888Z,14.17
2019-03-23T06:18:55.726Z,15.01
2019-03-23T06:21:24.405Z,14.82
2019-03-23T06:23:53.105Z,14.99
2019-03-23T06:26:21.860Z,14.75
2019-03-23T06:28:50.548Z,15.41
2019-03-23T06:31:19.238Z,15.96
2019-03-23T06:33:47.911Z,16.25
2019-03-23T06:36:16.638Z,16.29
2019-03-23T06:38:45.369Z,15.92
2019-03-23T06:41:14.086Z,15.90
2019-03-23T06:43:42.777Z,16.53
2019-03-23T06:46:11.473Z,17.30
2019-03-23T06:48:40.361Z,16.75
2019-03-23T06:51:09.048Z,17.39
2019-03-23T06:53:37.728Z,17.82
2019-03-23T06:56:06.625Z,18.52
2019-03-23T06:58:35.308Z,19.24
2019-03-23T07:01:03.978Z,19.77
2019-03-23T07:03:32.655Z,19.63
2019-03-23T07:06:01.360Z,20.23
2019-03-23T07:08:32.222Z,20.28
2019-03-23T07:11:00.527Z,20.20
2019-03-23T07:13:29.210Z,18.71
2019-03-23T07:15:57.879Z,19.25
2019-03-23T07:18:26.557Z,20.44
2019-03-23T07:20:55.231Z,19.88
2019-03-23T07:23:23.918Z,19.67
2019-03-23T07:25:52.586Z,20.61
2019-03-23T07:28:21.282Z,21.86
2019-03-23T07:30:50.175Z,22.54
2019-03-23T07:33:18.887Z,23.09
2019-03-23T07:35:47.563Z,22.07
2019-03-23T07:38:16.250Z,22.49
2019-03-23T07:40:44.939Z,21.83
2019-03-23T07:43:14.037Z,22.05
2019-03-23T07:45:42.718Z,23.01
2019-03-23T07:48:11.402Z,24.02
2019-03-23T07:50:40.076Z,24.78
2019-03-23T07:53:08.752Z,24.61
2019-03-23T07:55:37.438Z,24.87
2019-03-23T07:58:06.122Z,24.53
2019-03-23T08:00:34.823Z,25.65
2019-03-23T08:03:03.499Z,26.22
2019-03-23T08:05:32.265Z,25.78
2019-03-23T08:08:00.952Z,26.23
2019-03-23T08:10:34.027Z,26.70
2019-03-23T08:13:02.704Z,27.06
2019-03-23T08:15:31.675Z,27.37
2019-03-23T08:18:00.363Z,27.28
2019-03-23T08:20:29.049Z,27.67
2019-03-23T08:22:57.761Z,27.73
2019-03-23T08:25:26.565Z,28.26
2019-03-23T08:27:55.473Z,28.77
2019-03-23T08:30:24.178Z,28.51
2019-03-23T08:32:52.855Z,28.43
2019-03-23T08:35:21.536Z,29.19
2019-03-23T08:37:50.226Z,29.84
2019-03-23T08:40:18.915Z,29.43
2019-03-23T08:42:47.637Z,29.29
2019-03-23T08:45:16.300Z,29.99
2019-03-23T08:47:44.978Z,30.53
2019-03-23T08:50:13.647Z,29.89
2019-03-23T08:52:42.383Z,29.73
2019-03-23T08:55:11.853Z,30.35
2019-03-23T08:57:41.545Z,30.04
2019-03-23T09:00:11.091Z,30.24
2019-03-23T09:02:39.773Z,30.16
2019-03-23T09:05:08.658Z,30.48
2019-03-23T09:07:37.353Z,30.21
2019-03-23T09:10:09.217Z,30.41
2019-03-23T09:12:37.906Z,30.88
2019-03-23T09:15:08.740Z,30.58
2019-03-23T09:17:37.469Z,31.14
2019-03-23T09:20:11.072Z,29.84
2019-03-23T09:22:39.736Z,30.32
2019-03-23T09:25:08.415Z,30.22
2019-03-23T09:27:37.095Z,30.31
2019-03-23T09:30:08.680Z,30.72
2019-03-23T09:32:37.365Z,31.65
2019-03-23T09:35:06.883Z,32.59
2019-03-23T09:37:38.051Z,32.29
2019-03-23T09:40:11.012Z,32.25
2019-03-23T09:42:37.164Z,31.49
2019-03-23T09:45:08.445Z,31.91
2019-03-23T09:47:37.309Z,31.52
2019-03-23T09:50:08.888Z,30.75
2019-03-23T09:52:37.557Z,32.26
2019-03-23T09:55:08.130Z,33.00
2019-03-23T09:57:36.825Z,33.10
2019-03-23T10:00:12.806Z,33.20
2019-03-23T10:02:41.474Z,31.63
2019-03-23T10:05:10.147Z,32.52
2019-03-23T10:07:38.822Z,33.73
2019-03-23T10:10:08.189Z,33.42
2019-03-23T10:12:36.957Z,32.33
2019-03-23T10:15:08.957Z,30.61
2019-03-23T10:17:37.651Z,31.97
2019-03-23T10:20:07.334Z,33.16
2019-03-23T10:22:35.997Z,31.99
2019-03-23T10:25:06.397Z,31.87
2019-03-23T10:27:35.173Z,32.03
2019-03-23T10:30:05.409Z,31.65
2019-03-23T10:32:34.093Z,32.77
2019-03-23T10:35:02.755Z,32.91
2019-03-23T10:37:31.632Z,31.09
2019-03-23T10:40:00.326Z,32.50
2019-03-23T10:42:29.230Z,33.29
2019-03-23T10:44:57.909Z,34.45
2019-03-23T10:47:26.697Z,35.92
2019-03-23T10:49:55.963Z,34.62
2019-03-23T10:52:24.631Z,34.43
2019-03-23T10:54:53.339Z,33.92
2019-03-23T10:57:23.525Z,34.55
2019-03-23T10:59:52.186Z,33.59
2019-03-23T11:02:20.991Z,33.94
2019-03-23T11:04:49.670Z,34.55
2019-03-23T11:07:18.366Z,35.61
2019-03-23T11:09:47.043Z,35.11
2019-03-23T11:12:15.723Z,34.44
2019-03-23T11:14:44.392Z,35.42
2019-03-23T11:17:13.058Z,35.57
2019-03-23T11:19:43.301Z,33.35
2019-03-23T11:22:11.964Z,32.02
2019-03-23T11:24:40.661Z,32.20
2019-03-23T11:27:09.484Z,32.38
2019-03-23T11:29:38.157Z,33.20
2019-03-23T11:32:06.848Z,32.82
2019-03-23T11:34:35.536Z,33.66
2019-03-23T11:37:04.785Z,34.61
2019-03-23T11:39:33.435Z,32.33
2019-03-23T11:42:02.114Z,31.54
2019-03-23T11:44:30.847Z,32.20
2019-03-23T11:46:59.519Z,32.82
2019-03-23T11:49:28.460Z,33.62
2019-03-23T11:51:57.346Z,32.46
2019-03-23T11:54:25.995Z,32.39
2019-03-23T11:56:54.685Z,32.87
2019-03-23T11:59:23.473Z,31.96
2019-03-23T12:01:52.260Z,32.98
2019-03-23T12:04:20.904Z,31.29
2019-03-23T12:06:49.597Z,31.16
2019-03-23T12:09:18.269Z,31.22
2019-03-23T12:11:47.006Z,29.74
2019-03-23T12:14:15.692Z,29.66
2019-03-23T12:16:44.356Z,30.79
2019-03-23T12:19:13.030Z,30.13
2019-03-23T12:21:41.694Z,30.18
2019-03-23T12:24:10.374Z,30.54
2019-03-23T12:26:39.052Z,29.77
2019-03-23T12:29:07.723Z,29.03
2019-03-23T12:31:36.385Z,29.37
2019-03-23T12:34:05.070Z,29.41
2019-03-23T12:36:33.734Z,29.72
2019-03-23T12:39:02.411Z,30.23
2019-03-23T12:41:31.075Z,29.93
2019-03-23T12:43:59.925Z,28.94
2019-03-23T12:46:28.595Z,29.57
2019-03-23T12:48:57.278Z,30.58
2019-03-23T12:51:25.968Z,30.72
2019-03-23T12:53:54.679Z,28.68
2019-03-23T12:56:23.344Z,30.71
2019-03-23T12:58:52.025Z,29.31
2019-03-23T13:01:20.700Z,28.62
2019-03-23T13:03:49.361Z,29.94
2019-03-23T13:06:18.438Z,30.78
2019-03-23T13:08:47.127Z,29.34
2019-03-23T13:11:23.313Z,30.94
2019-03-23T13:13:46.213Z,31.08
2019-03-23T13:16:15.056Z,29.71
2019-03-23T13:18:43.721Z,27.58
2019-03-23T13:21:12.412Z,27.36
2019-03-23T13:23:41.078Z,28.07
2019-03-23T13:26:09.750Z,28.45
2019-03-23T13:28:38.433Z,27.67
2019-03-23T13:31:07.124Z,27.49
2019-03-23T13:33:35.796Z,29.56
2019-03-23T13:36:05.070Z,31.89
2019-03-23T13:38:33.757Z,33.08
2019-03-23T13:41:02.526Z,33.36
2019-03-23T13:43:31.443Z,32.23
2019-03-23T13:46:00.120Z,29.39
2019-03-23T13:48:28.801Z,29.89
2019-03-23T13:50:57.478Z,28.93
2019-03-23T13:53:26.165Z,28.43
2019-03-23T13:55:54.841Z,29.09
2019-03-23T13:58:23.524Z,29.76
2019-03-23T14:00:52.201Z,31.60
2019-03-23T14:03:20.877Z,31.67
2019-03-23T14:05:49.572Z,31.64
2019-03-23T14:08:18.242Z,31.61
2019-03-23T14:10:46.928Z,32.19
2019-03-23T14:13:17.050Z,32.12
2019-03-23T14:15:45.726Z,32.21
2019-03-23T14:18:14.426Z,32.84
2019-03-23T14:20:43.110Z,32.34
2019-03-23T14:23:12.015Z,31.70
2019-03-23T14:25:40.737Z,32.15
2019-03-23T14:28:09.412Z,31.39
2019-03-23T14:30:38.249Z,31.79
2019-03-23T14:33:06.929Z,30.14
2019-03-23T14:35:35.596Z,29.51
2019-03-23T14:38:04.256Z,31.12
2019-03-23T14:40:32.922Z,30.32
2019-03-23T14:43:01.602Z,29.66
2019-03-23T14:45:30.275Z,30.55
2019-03-23T14:47:58.967Z,30.34
2019-03-23T14:50:27.650Z,30.24
2019-03-23T14:52:56.334Z,30.96
2019-03-23T14:55:25.005Z,31.09
2019-03-23T14:57:53.971Z,30.35
2019-03-23T15:00:33.337Z,30.61
2019-03-23T15:03:02.025Z,28.66
2019-03-23T15:05:31.118Z,25.97
2019-03-23T15:07:59.949Z,24.98
2019-03-23T15:10:28.617Z,23.91
2019-03-23T15:12:57.424Z,23.98
2019-03-23T15:15:26.163Z,23.22
2019-03-23T15:17:54.835Z,22.02
2019-03-23T15:20:23.607Z,21.35
2019-03-23T15:22:52.275Z,20.56
2019-03-23T15:25:21.055Z,20.11
2019-03-23T15:27:49.721Z,19.85
2019-03-23T15:30:18.438Z,19.63
2019-03-23T15:32:47.138Z,19.37
2019-03-23T15:35:15.822Z,19.18
2019-03-23T15:37:44.512Z,18.79
2019-03-23T15:40:13.471Z,18.74
2019-03-23T15:42:42.143Z,18.58
2019-03-23T15:45:11.594Z,18.43
2019-03-23T15:47:40.289Z,18.27
2019-03-23T15:50:09.678Z,18.13
2019-03-23T15:52:38.350Z,18.01
2019-03-23T15:55:07.515Z,17.85
2019-03-23T15:57:37.030Z,17.79
2019-03-23T16:00:11.190Z,17.66
2019-03-23T16:02:41.055Z,17.55
2019-03-23T16:05:10.391Z,17.49
2019-03-23T16:07:39.076Z,17.38
2019-03-23T16:10:10.442Z,17.29
2019-03-23T16:12:39.108Z,17.14
2019-03-23T16:15:10.358Z,17.02
2019-03-23T16:17:39.080Z,16.87
2019-03-23T16:20:10.372Z,16.76
2019-03-23T16:22:39.050Z,16.72
2019-03-23T16:25:09.322Z,16.67
2019-03-23T16:27:37.984Z,16.47
2019-03-23T16:30:08.908Z,16.35
2019-03-23T16:32:37.580Z,16.36
2019-03-23T16:35:07.484Z,16.17
2019-03-23T16:37:36.271Z,15.98
2019-03-23T16:40:08.213Z,15.88
2019-03-23T16:42:44.674Z,15.80
2019-03-23T16:45:09.398Z,15.75
2019-03-23T16:47:38.469Z,15.75
2019-03-23T16:50:09.241Z,15.63
2019-03-23T16:52:38.457Z,15.58
2019-03-23T16:55:09.357Z,15.58
2019-03-23T16:57:38.017Z,15.65
2019-03-23T17:00:12.265Z,14.87
2019-03-23T17:02:40.944Z,15.37
2019-03-23T17:05:10.421Z,15.29
2019-03-23T17:07:40.437Z,15.19
2019-03-23T17:10:09.607Z,15.31
2019-03-23T17:12:38.288Z,15.31
2019-03-23T17:15:07.980Z,15.30
2019-03-23T17:17:36.902Z,15.15
2019-03-23T17:20:06.922Z,14.68
2019-03-23T17:22:35.591Z,14.84
2019-03-23T17:25:06.369Z,14.88
2019-03-23T17:27:35.047Z,14.84
2019-03-23T17:30:05.024Z,14.68
2019-03-23T17:32:33.720Z,14.54
2019-03-23T17:35:02.478Z,14.46
2019-03-23T17:37:31.160Z,14.39
2019-03-23T17:40:00.024Z,14.24
2019-03-23T17:42:28.695Z,14.05
2019-03-23T17:44:57.376Z,14.09
2019-03-23T17:47:26.120Z,14.01
2019-03-23T17:49:57.183Z,13.83
2019-03-23T17:52:25.359Z,13.90
2019-03-23T17:54:54.148Z,13.78
2019-03-23T17:57:23.260Z,13.63
2019-03-23T17:59:52.016Z,13.35
2019-03-23T18:02:20.784Z,13.24
2019-03-23T18:04:49.470Z,13.11
2019-03-23T18:07:18.158Z,12.96
2019-03-23T18:09:46.841Z,12.84
2019-03-23T18:12:15.921Z,12.72
2019-03-23T18:14:44.603Z,12.66
2019-03-23T18:17:13.514Z,12.54
2019-03-23T18:19:42.197Z,12.33
2019-03-23T18:22:10.876Z,12.25
2019-03-23T18:24:39.931Z,12.17
2019-03-23T18:27:08.695Z,12.15
2019-03-23T18:29:37.391Z,12.07
2019-03-23T18:32:06.084Z,12.06
2019-03-23T18:34:34.858Z,12.00
2019-03-23T18:37:03.533Z,11.96
2019-03-23T18:39:32.426Z,12.01
2019-03-23T18:42:01.108Z,11.92
2019-03-23T18:44:30.025Z,12.00
2019-03-23T18:46:58.729Z,12.01
2019-03-23T18:49:27.421Z,12.05
2019-03-23T18:51:56.086Z,11.98
2019-03-23T18:54:24.756Z,11.95
2019-03-23T18:56:53.477Z,11.91
2019-03-23T18:59:22.140Z,11.92
2019-03-23T19:01:50.824Z,11.82
2019-03-23T19:04:19.648Z,11.73
2019-03-23T19:06:48.370Z,11.81
2019-03-23T19:09:17.201Z,11.80
2019-03-23T19:11:45.913Z,11.63
2019-03-23T19:14:14.696Z,11.64
2019-03-23T19:16:43.427Z,11.75
2019-03-23T19:19:12.099Z,11.72
2019-03-23T19:21:40.780Z,11.80
2019-03-23T19:24:09.474Z,11.74
2019-03-23T19:26:38.189Z,11.61
2019-03-23T19:29:06.870Z,11.74
2019-03-23T19:31:35.555Z,11.70
2019-03-23T19:34:04.340Z,11.54
2019-03-23T19:36:33.025Z,11.44
2019-03-23T19:39:01.811Z,11.28
2019-03-23T19:41:32.099Z,11.24
2019-03-23T19:44:00.780Z,11.16
2019-03-23T19:46:29.459Z,10.89
2019-03-23T19:48:58.143Z,10.93
2019-03-23T19:51:27.394Z,10.88
2019-03-23T19:53:56.085Z,10.80
2019-03-23T19:56:24.786Z,10.52
2019-03-23T19:58:53.454Z,10.70
2019-03-23T20:01:22.149Z,10.42
2019-03-23T20:03:50.834Z,10.45
2019-03-23T20:06:19.524Z,10.39
2019-03-23T20:08:48.205Z,10.36
2019-03-23T20:11:16.928Z,10.24
2019-03-23T20:13:45.697Z,10.08
2019-03-23T20:16:14.613Z,10.08
2019-03-23T20:18:43.289Z,10.02
2019-03-23T20:21:11.976Z,10.05
2019-03-23T20:23:40.718Z,10.00
2019-03-23T20:26:09.394Z,10.09
2019-03-23T20:28:38.078Z,10.03
2019-03-23T20:31:06.749Z,10.24
2019-03-23T20:33:35.452Z,10.16
2019-03-23T20:36:04.144Z,10.22
2019-03-23T20:38:32.972Z,10.14
2019-03-23T20:41:01.656Z,10.09
2019-03-23T20:43:30.330Z,9.98
2019-03-23T20:45:59.008Z,9.87
2019-03-23T20:48:27.747Z,9.81
2019-03-23T20:50:56.424Z,9.76
2019-03-23T20:53:25.094Z,9.60
2019-03-23T20:55:53.880Z,9.73
2019-03-23T20:58:22.544Z,9.70
2019-03-23T21:00:51.215Z,9.72
2019-03-23T21:03:19.896Z,9.75
2019-03-23T21:05:48.649Z,9.82
2019-03-23T21:08:17.336Z,9.80
2019-03-23T21:10:46.031Z,9.71
2019-03-23T21:13:14.743Z,9.79
2019-03-23T21:15:43.421Z,9.77
2019-03-23T21:18:12.091Z,9.69
2019-03-23T21:20:40.799Z,9.59
2019-03-23T21:23:09.473Z,9.61
2019-03-23T21:25:38.220Z,9.68
2019-03-23T21:28:06.898Z,9.55
2019-03-23T21:30:35.902Z,9.50
2019-03-23T21:33:04.679Z,9.45
2019-03-23T21:35:33.360Z,9.46
2019-03-23T21:38:02.055Z,9.44
2019-03-23T21:40:30.721Z,9.39
2019-03-23T21:42:59.395Z,9.38
2019-03-23T21:45:28.077Z,9.55
2019-03-23T21:47:56.847Z,9.63
2019-03-23T21:50:25.516Z,9.54
2019-03-23T21:52:54.200Z,9.58
2019-03-23T21:55:22.880Z,9.46
2019-03-23T21:57:51.552Z,9.40
2019-03-23T22:00:26.040Z,9.45
2019-03-23T22:02:54.697Z,9.48
2019-03-23T22:05:23.509Z,9.46
2019-03-23T22:07:52.192Z,9.52
2019-03-23T22:10:20.862Z,9.39
2019-03-23T22:12:49.634Z,9.26
2019-03-23T22:15:18.522Z,9.25
2019-03-23T22:17:47.236Z,9.21
2019-03-23T22:20:16.539Z,9.31
2019-03-23T22:22:45.199Z,9.30
2019-03-23T22:25:13.873Z,9.19
2019-03-23T22:27:42.629Z,9.19
2019-03-23T22:30:10.011Z,9.31
2019-03-23T22:32:38.686Z,9.39
2019-03-23T22:35:10.850Z,9.37
2019-03-23T22:37:39.542Z,9.30
2019-03-23T22:40:10.294Z,9.32
2019-03-23T22:42:39.169Z,9.31
2019-03-23T22:45:08.739Z,9.26
2019-03-23T22:47:37.493Z,9.19
2019-03-23T22:50:09.889Z,9.02
2019-03-23T22:52:38.869Z,8.93
2019-03-23T22:55:08.354Z,8.88
2019-03-23T22:57:37.721Z,8.87
2019-03-23T23:00:13.626Z,8.90
2019-03-23T23:02:42.418Z,8.87
2019-03-23T23:05:11.194Z,8.88
2019-03-23T23:07:39.955Z,8.83
2019-03-23T23:10:08.736Z,8.80
2019-03-23T23:12:37.404Z,8.78
2019-03-23T23:15:09.402Z,8.71
2019-03-23T23:17:38.296Z,8.68
2019-03-23T23:20:10.292Z,8.60
2019-03-23T23:22:38.962Z,8.55
2019-03-23T23:25:08.247Z,8.52
2019-03-23T23:27:37.609Z,8.49
2019-03-23T23:30:08.539Z,8.42
2019-03-23T23:32:37.719Z,8.39
2019-03-23T23:35:08.590Z,8.36
2019-03-23T23:37:37.454Z,8.33
2019-03-23T23:40:07.330Z,8.19
2019-03-23T23:42:36.430Z,8.06
2019-03-23T23:45:15.261Z,7.98
2019-03-23T23:47:37.672Z,7.88
2019-03-23T23:50:08.444Z,7.94
2019-03-23T23:52:37.461Z,7.96
2019-03-23T23:55:06.994Z,8.01
2019-03-23T23:57:35.738Z,8.01
